sensor_id;sensor_type;location;lat;lon;timestamp;P1;durP1;ratioP1;P2;durP2;ratioP2
19569;SDS011;9931;51.458;7.256;2023-03-17T00:01:02;17.52;;;1.52;;
19569;SDS011;9931;51.458;7.256;2023-03-17T00:03:27;11.40;;;1.15;;
19569;SDS011;9931;51.458;7.256;2023-03-17T00:05:54;14.02;;;1.38;;
19569;SDS011;9931;51.458;7.256;2023-03-17T00:08:21;16.60;;;1.52;;
19569;SDS011;9931;51.458;7.256;2023-03-17T00:10:47;8.50;;;1.00;;
19569;SDS011;9931;51.458;7.256;2023-03-17T00:13:12;16.92;;;1.52;;
19569;SDS011;9931;51.458;7.256;2023-03-17T00:15:38;16.55;;;1.50;;
19569;SDS011;9931;51.458;7.256;2023-03-17T00:18:04;15.43;;;1.42;;
19569;SDS011;9931;51.458;7.256;2023-03-17T00:20:34;5.00;;;0.65;;
19569;SDS011;9931;51.458;7.256;2023-03-17T00:23:00;13.40;;;1.27;;
19569;SDS011;9931;51.458;7.256;2023-03-17T00:25:28;2.33;;;0.50;;
19569;SDS011;9931;51.458;7.256;2023-03-17T00:27:55;12.48;;;1.20;;
19569;SDS011;9931;51.458;7.256;2023-03-17T00:30:21;11.85;;;1.23;;
19569;SDS011;9931;51.458;7.256;2023-03-17T00:32:47;22.90;;;1.88;;
19569;SDS011;9931;51.458;7.256;2023-03-17T00:35:17;23.85;;;1.98;;
19569;SDS011;9931;51.458;7.256;2023-03-17T00:37:43;23.15;;;1.95;;
19569;SDS011;9931;51.458;7.256;2023-03-17T00:40:14;16.42;;;1.55;;
19569;SDS011;9931;51.458;7.256;2023-03-17T00:42:39;12.52;;;1.30;;
19569;SDS011;9931;51.458;7.256;2023-03-17T00:45:05;15.57;;;1.35;;
19569;SDS011;9931;51.458;7.256;2023-03-17T00:47:31;10.07;;;1.08;;
19569;SDS011;9931;51.458;7.256;2023-03-17T00:49:56;11.55;;;1.20;;
19569;SDS011;9931;51.458;7.256;2023-03-17T00:52:22;4.00;;;0.63;;
19569;SDS011;9931;51.458;7.256;2023-03-17T00:54:48;17.63;;;1.55;;
19569;SDS011;9931;51.458;7.256;2023-03-17T00:57:13;21.95;;;1.85;;
19569;SDS011;9931;51.458;7.256;2023-03-17T00:59:39;20.60;;;1.75;;
19569;SDS011;9931;51.458;7.256;2023-03-17T01:02:05;4.88;;;0.70;;
19569;SDS011;9931;51.458;7.256;2023-03-17T01:04:31;15.57;;;1.48;;
19569;SDS011;9931;51.458;7.256;2023-03-17T01:06:57;10.20;;;1.13;;
19569;SDS011;9931;51.458;7.256;2023-03-17T01:09:24;11.85;;;1.20;;
19569;SDS011;9931;51.458;7.256;2023-03-17T01:11:50;13.52;;;1.25;;
19569;SDS011;9931;51.458;7.256;2023-03-17T01:14:16;20.88;;;1.83;;
19569;SDS011;9931;51.458;7.256;2023-03-17T01:16:41;8.57;;;1.02;;
19569;SDS011;9931;51.458;7.256;2023-03-17T01:19:07;13.57;;;1.35;;
19569;SDS011;9931;51.458;7.256;2023-03-17T01:21:33;14.80;;;1.42;;
19569;SDS011;9931;51.458;7.256;2023-03-17T01:23:58;7.90;;;1.05;;
19569;SDS011;9931;51.458;7.256;2023-03-17T01:26:24;7.57;;;0.90;;
19569;SDS011;9931;51.458;7.256;2023-03-17T01:28:49;20.35;;;1.67;;
19569;SDS011;9931;51.458;7.256;2023-03-17T01:31:14;31.35;;;2.45;;
19569;SDS011;9931;51.458;7.256;2023-03-17T01:33:39;13.35;;;1.30;;
19569;SDS011;9931;51.458;7.256;2023-03-17T01:36:05;21.95;;;1.83;;
19569;SDS011;9931;51.458;7.256;2023-03-17T01:38:30;37.20;;;2.78;;
19569;SDS011;9931;51.458;7.256;2023-03-17T01:40:57;32.42;;;2.50;;
19569;SDS011;9931;51.458;7.256;2023-03-17T01:43:29;42.53;;;3.08;;
19569;SDS011;9931;51.458;7.256;2023-03-17T01:46:54;44.92;;;3.13;;
19569;SDS011;9931;51.458;7.256;2023-03-17T01:49:09;33.20;;;2.53;;
19569;SDS011;9931;51.458;7.256;2023-03-17T01:54:04;26.05;;;2.05;;
19569;SDS011;9931;51.458;7.256;2023-03-17T01:56:30;42.55;;;3.08;;
19569;SDS011;9931;51.458;7.256;2023-03-17T01:58:56;38.35;;;2.78;;
19569;SDS011;9931;51.458;7.256;2023-03-17T02:01:25;48.42;;;3.38;;
19569;SDS011;9931;51.458;7.256;2023-03-17T02:03:51;37.92;;;2.78;;
19569;SDS011;9931;51.458;7.256;2023-03-17T02:06:17;40.70;;;2.95;;
19569;SDS011;9931;51.458;7.256;2023-03-17T02:08:42;34.97;;;2.60;;
19569;SDS011;9931;51.458;7.256;2023-03-17T02:11:08;40.92;;;2.97;;
19569;SDS011;9931;51.458;7.256;2023-03-17T02:13:33;46.03;;;3.25;;
19569;SDS011;9931;51.458;7.256;2023-03-17T02:16:00;37.85;;;2.78;;
19569;SDS011;9931;51.458;7.256;2023-03-17T02:18:25;41.75;;;3.08;;
19569;SDS011;9931;51.458;7.256;2023-03-17T02:23:34;59.63;;;4.18;;
19569;SDS011;9931;51.458;7.256;2023-03-17T02:26:00;42.97;;;3.10;;
19569;SDS011;9931;51.458;7.256;2023-03-17T02:28:28;48.97;;;3.45;;
19569;SDS011;9931;51.458;7.256;2023-03-17T02:30:54;34.63;;;2.65;;
19569;SDS011;9931;51.458;7.256;2023-03-17T02:33:21;51.72;;;3.60;;
19569;SDS011;9931;51.458;7.256;2023-03-17T02:35:46;46.08;;;3.28;;
19569;SDS011;9931;51.458;7.256;2023-03-17T02:38:11;45.05;;;3.22;;
19569;SDS011;9931;51.458;7.256;2023-03-17T02:40:36;50.92;;;3.50;;
19569;SDS011;9931;51.458;7.256;2023-03-17T02:43:02;37.20;;;2.80;;
19569;SDS011;9931;51.458;7.256;2023-03-17T02:45:29;36.55;;;2.80;;
19569;SDS011;9931;51.458;7.256;2023-03-17T02:47:55;46.90;;;3.20;;
19569;SDS011;9931;51.458;7.256;2023-03-17T02:50:22;40.00;;;2.88;;
19569;SDS011;9931;51.458;7.256;2023-03-17T02:52:48;41.30;;;3.05;;
19569;SDS011;9931;51.458;7.256;2023-03-17T02:55:14;43.85;;;3.13;;
19569;SDS011;9931;51.458;7.256;2023-03-17T02:57:39;34.88;;;2.63;;
19569;SDS011;9931;51.458;7.256;2023-03-17T03:00:05;34.05;;;2.65;;
19569;SDS011;9931;51.458;7.256;2023-03-17T03:02:30;22.20;;;1.80;;
19569;SDS011;9931;51.458;7.256;2023-03-17T03:04:55;16.23;;;1.50;;
19569;SDS011;9931;51.458;7.256;2023-03-17T03:07:21;53.28;;;3.60;;
19569;SDS011;9931;51.458;7.256;2023-03-17T03:09:46;28.88;;;2.28;;
19569;SDS011;9931;51.458;7.256;2023-03-17T03:12:12;48.63;;;3.42;;
19569;SDS011;9931;51.458;7.256;2023-03-17T03:14:37;52.72;;;3.70;;
19569;SDS011;9931;51.458;7.256;2023-03-17T03:17:03;49.08;;;3.40;;
19569;SDS011;9931;51.458;7.256;2023-03-17T03:19:28;43.17;;;3.10;;
19569;SDS011;9931;51.458;7.256;2023-03-17T03:21:53;42.75;;;3.13;;
19569;SDS011;9931;51.458;7.256;2023-03-17T03:24:19;60.28;;;3.90;;
19569;SDS011;9931;51.458;7.256;2023-03-17T03:26:44;35.20;;;2.72;;
19569;SDS011;9931;51.458;7.256;2023-03-17T03:29:09;40.38;;;2.97;;
19569;SDS011;9931;51.458;7.256;2023-03-17T03:31:34;60.63;;;4.07;;
19569;SDS011;9931;51.458;7.256;2023-03-17T03:34:00;37.85;;;2.78;;
19569;SDS011;9931;51.458;7.256;2023-03-17T03:36:25;49.03;;;3.35;;
19569;SDS011;9931;51.458;7.256;2023-03-17T03:38:50;20.05;;;1.67;;
19569;SDS011;9931;51.458;7.256;2023-03-17T03:41:16;29.10;;;2.27;;
19569;SDS011;9931;51.458;7.256;2023-03-17T03:43:41;36.20;;;2.67;;
19569;SDS011;9931;51.458;7.256;2023-03-17T03:46:06;44.47;;;3.13;;
19569;SDS011;9931;51.458;7.256;2023-03-17T03:48:32;41.55;;;2.97;;
19569;SDS011;9931;51.458;7.256;2023-03-17T03:50:57;47.78;;;3.38;;
19569;SDS011;9931;51.458;7.256;2023-03-17T03:53:23;56.50;;;4.03;;
19569;SDS011;9931;51.458;7.256;2023-03-17T03:55:48;57.78;;;4.00;;
19569;SDS011;9931;51.458;7.256;2023-03-17T03:58:13;43.13;;;3.10;;
19569;SDS011;9931;51.458;7.256;2023-03-17T04:00:39;53.33;;;3.83;;
19569;SDS011;9931;51.458;7.256;2023-03-17T04:03:04;36.58;;;2.67;;
19569;SDS011;9931;51.458;7.256;2023-03-17T04:05:29;29.35;;;2.25;;
19569;SDS011;9931;51.458;7.256;2023-03-17T04:07:54;30.58;;;2.35;;
19569;SDS011;9931;51.458;7.256;2023-03-17T04:10:20;27.13;;;2.13;;
19569;SDS011;9931;51.458;7.256;2023-03-17T04:12:47;30.30;;;2.38;;
19569;SDS011;9931;51.458;7.256;2023-03-17T04:15:13;47.40;;;3.38;;
19569;SDS011;9931;51.458;7.256;2023-03-17T04:17:39;31.05;;;2.55;;
19569;SDS011;9931;51.458;7.256;2023-03-17T04:20:05;40.22;;;3.15;;
19569;SDS011;9931;51.458;7.256;2023-03-17T04:22:30;33.95;;;2.72;;
19569;SDS011;9931;51.458;7.256;2023-03-17T04:24:56;30.92;;;2.50;;
19569;SDS011;9931;51.458;7.256;2023-03-17T04:27:21;29.27;;;2.35;;
19569;SDS011;9931;51.458;7.256;2023-03-17T04:29:46;7.50;;;0.90;;
19569;SDS011;9931;51.458;7.256;2023-03-17T04:32:13;16.88;;;1.58;;
19569;SDS011;9931;51.458;7.256;2023-03-17T04:34:39;20.23;;;1.83;;
19569;SDS011;9931;51.458;7.256;2023-03-17T04:37:04;23.25;;;2.03;;
19569;SDS011;9931;51.458;7.256;2023-03-17T04:39:29;20.05;;;1.75;;
19569;SDS011;9931;51.458;7.256;2023-03-17T04:41:54;16.02;;;1.50;;
19569;SDS011;9931;51.458;7.256;2023-03-17T04:44:20;36.53;;;2.83;;
19569;SDS011;9931;51.458;7.256;2023-03-17T04:46:45;25.23;;;2.13;;
19569;SDS011;9931;51.458;7.256;2023-03-17T04:49:11;21.13;;;1.80;;
19569;SDS011;9931;51.458;7.256;2023-03-17T04:51:36;26.38;;;2.15;;
19569;SDS011;9931;51.458;7.256;2023-03-17T04:54:02;36.03;;;2.83;;
19569;SDS011;9931;51.458;7.256;2023-03-17T04:56:27;44.05;;;3.30;;
19569;SDS011;9931;51.458;7.256;2023-03-17T04:58:52;18.42;;;1.73;;
19569;SDS011;9931;51.458;7.256;2023-03-17T05:01:18;23.00;;;1.98;;
19569;SDS011;9931;51.458;7.256;2023-03-17T05:03:44;46.42;;;3.38;;
19569;SDS011;9931;51.458;7.256;2023-03-17T05:06:09;16.37;;;1.57;;
19569;SDS011;9931;51.458;7.256;2023-03-17T05:08:34;22.27;;;1.90;;
19569;SDS011;9931;51.458;7.256;2023-03-17T05:11:00;21.90;;;1.92;;
19569;SDS011;9931;51.458;7.256;2023-03-17T05:13:25;24.45;;;2.05;;
19569;SDS011;9931;51.458;7.256;2023-03-17T05:15:51;2.55;;;0.52;;
19569;SDS011;9931;51.458;7.256;2023-03-17T05:18:17;19.55;;;1.77;;
19569;SDS011;9931;51.458;7.256;2023-03-17T05:20:43;18.77;;;1.73;;
19569;SDS011;9931;51.458;7.256;2023-03-17T05:23:08;17.88;;;1.65;;
19569;SDS011;9931;51.458;7.256;2023-03-17T05:25:34;17.48;;;1.65;;
19569;SDS011;9931;51.458;7.256;2023-03-17T05:27:59;49.05;;;3.50;;
19569;SDS011;9931;51.458;7.256;2023-03-17T05:30:25;22.67;;;1.92;;
19569;SDS011;9931;51.458;7.256;2023-03-17T05:32:50;19.38;;;1.75;;
19569;SDS011;9931;51.458;7.256;2023-03-17T05:35:16;46.22;;;3.47;;
19569;SDS011;9931;51.458;7.256;2023-03-17T05:37:41;12.05;;;1.20;;
19569;SDS011;9931;51.458;7.256;2023-03-17T05:40:07;16.70;;;1.55;;
19569;SDS011;9931;51.458;7.256;2023-03-17T05:42:32;7.03;;;0.88;;
19569;SDS011;9931;51.458;7.256;2023-03-17T05:44:57;15.90;;;1.55;;
19569;SDS011;9931;51.458;7.256;2023-03-17T05:47:26;25.13;;;2.08;;
19569;SDS011;9931;51.458;7.256;2023-03-17T05:49:51;26.85;;;2.28;;
19569;SDS011;9931;51.458;7.256;2023-03-17T05:52:16;26.85;;;2.17;;
19569;SDS011;9931;51.458;7.256;2023-03-17T05:54:42;35.25;;;2.78;;
19569;SDS011;9931;51.458;7.256;2023-03-17T05:57:08;23.85;;;2.20;;
19569;SDS011;9931;51.458;7.256;2023-03-17T05:59:34;21.13;;;1.83;;
19569;SDS011;9931;51.458;7.256;2023-03-17T06:02:00;16.10;;;1.50;;
19569;SDS011;9931;51.458;7.256;2023-03-17T06:04:25;23.73;;;1.97;;
19569;SDS011;9931;51.458;7.256;2023-03-17T06:06:50;13.70;;;1.40;;
19569;SDS011;9931;51.458;7.256;2023-03-17T06:09:15;16.27;;;1.50;;
19569;SDS011;9931;51.458;7.256;2023-03-17T06:11:42;38.42;;;2.88;;
19569;SDS011;9931;51.458;7.256;2023-03-17T06:14:07;15.63;;;1.50;;
19569;SDS011;9931;51.458;7.256;2023-03-17T06:16:33;20.75;;;1.83;;
19569;SDS011;9931;51.458;7.256;2023-03-17T06:18:58;23.40;;;1.95;;
19569;SDS011;9931;51.458;7.256;2023-03-17T06:21:23;21.80;;;1.85;;
19569;SDS011;9931;51.458;7.256;2023-03-17T06:23:48;17.85;;;1.73;;
19569;SDS011;9931;51.458;7.256;2023-03-17T06:26:13;17.45;;;1.55;;
19569;SDS011;9931;51.458;7.256;2023-03-17T06:28:39;16.67;;;1.60;;
19569;SDS011;9931;51.458;7.256;2023-03-17T06:31:04;13.87;;;1.33;;
19569;SDS011;9931;51.458;7.256;2023-03-17T06:33:29;6.22;;;0.85;;
19569;SDS011;9931;51.458;7.256;2023-03-17T06:35:54;19.90;;;1.77;;
19569;SDS011;9931;51.458;7.256;2023-03-17T06:38:22;17.83;;;1.65;;
19569;SDS011;9931;51.458;7.256;2023-03-17T06:40:48;17.08;;;1.55;;
19569;SDS011;9931;51.458;7.256;2023-03-17T06:43:13;13.18;;;1.30;;
19569;SDS011;9931;51.458;7.256;2023-03-17T06:45:39;17.67;;;1.48;;
19569;SDS011;9931;51.458;7.256;2023-03-17T06:48:05;5.22;;;0.68;;
19569;SDS011;9931;51.458;7.256;2023-03-17T06:50:30;30.23;;;2.47;;
19569;SDS011;9931;51.458;7.256;2023-03-17T06:52:56;17.98;;;1.65;;
19569;SDS011;9931;51.458;7.256;2023-03-17T06:55:21;15.27;;;1.50;;
19569;SDS011;9931;51.458;7.256;2023-03-17T06:57:46;14.75;;;1.42;;
19569;SDS011;9931;51.458;7.256;2023-03-17T07:00:12;15.05;;;1.40;;
19569;SDS011;9931;51.458;7.256;2023-03-17T07:02:38;14.57;;;1.40;;
19569;SDS011;9931;51.458;7.256;2023-03-17T07:05:03;21.67;;;1.95;;
19569;SDS011;9931;51.458;7.256;2023-03-17T07:07:30;60.40;;;4.20;;
19569;SDS011;9931;51.458;7.256;2023-03-17T07:09:55;5.78;;;0.80;;
19569;SDS011;9931;51.458;7.256;2023-03-17T07:12:20;18.48;;;1.67;;
19569;SDS011;9931;51.458;7.256;2023-03-17T07:14:46;17.33;;;1.67;;
19569;SDS011;9931;51.458;7.256;2023-03-17T07:17:12;22.02;;;1.92;;
19569;SDS011;9931;51.458;7.256;2023-03-17T07:19:38;18.85;;;1.75;;
19569;SDS011;9931;51.458;7.256;2023-03-17T07:22:04;29.67;;;2.35;;
19569;SDS011;9931;51.458;7.256;2023-03-17T07:24:30;17.40;;;1.60;;
19569;SDS011;9931;51.458;7.256;2023-03-17T07:26:55;4.30;;;0.65;;
19569;SDS011;9931;51.458;7.256;2023-03-17T07:29:21;18.58;;;1.70;;
19569;SDS011;9931;51.458;7.256;2023-03-17T07:31:46;18.33;;;1.52;;
19569;SDS011;9931;51.458;7.256;2023-03-17T07:34:12;18.50;;;1.70;;
19569;SDS011;9931;51.458;7.256;2023-03-17T07:36:37;20.02;;;1.77;;
19569;SDS011;9931;51.458;7.256;2023-03-17T07:39:03;28.40;;;2.30;;
19569;SDS011;9931;51.458;7.256;2023-03-17T07:41:28;22.80;;;1.92;;
19569;SDS011;9931;51.458;7.256;2023-03-17T07:43:54;13.90;;;1.38;;
19569;SDS011;9931;51.458;7.256;2023-03-17T07:46:20;12.48;;;1.30;;
19569;SDS011;9931;51.458;7.256;2023-03-17T07:48:45;8.25;;;1.10;;
19569;SDS011;9931;51.458;7.256;2023-03-17T07:51:17;15.32;;;1.48;;
19569;SDS011;9931;51.458;7.256;2023-03-17T07:53:43;14.05;;;1.40;;
19569;SDS011;9931;51.458;7.256;2023-03-17T07:56:09;16.77;;;1.63;;
19569;SDS011;9931;51.458;7.256;2023-03-17T07:58:35;46.72;;;3.47;;
19569;SDS011;9931;51.458;7.256;2023-03-17T08:01:00;14.48;;;1.45;;
19569;SDS011;9931;51.458;7.256;2023-03-17T08:03:26;17.35;;;1.65;;
19569;SDS011;9931;51.458;7.256;2023-03-17T08:05:54;29.27;;;2.40;;
19569;SDS011;9931;51.458;7.256;2023-03-17T08:08:22;19.83;;;1.80;;
19569;SDS011;9931;51.458;7.256;2023-03-17T08:10:47;27.33;;;2.40;;
19569;SDS011;9931;51.458;7.256;2023-03-17T08:13:13;17.40;;;1.58;;
19569;SDS011;9931;51.458;7.256;2023-03-17T08:15:38;40.33;;;3.25;;
19569;SDS011;9931;51.458;7.256;2023-03-17T08:18:03;18.42;;;1.73;;
19569;SDS011;9931;51.458;7.256;2023-03-17T08:20:28;33.50;;;2.70;;
19569;SDS011;9931;51.458;7.256;2023-03-17T08:22:54;14.30;;;1.40;;
19569;SDS011;9931;51.458;7.256;2023-03-17T08:25:20;16.92;;;1.63;;
19569;SDS011;9931;51.458;7.256;2023-03-17T08:27:45;5.93;;;0.82;;
19569;SDS011;9931;51.458;7.256;2023-03-17T08:30:11;15.05;;;1.48;;
19569;SDS011;9931;51.458;7.256;2023-03-17T08:32:36;20.02;;;1.80;;
19569;SDS011;9931;51.458;7.256;2023-03-17T08:35:02;13.85;;;1.40;;
19569;SDS011;9931;51.458;7.256;2023-03-17T08:37:27;20.02;;;1.77;;
19569;SDS011;9931;51.458;7.256;2023-03-17T08:39:52;14.77;;;1.50;;
19569;SDS011;9931;51.458;7.256;2023-03-17T08:42:17;13.20;;;1.42;;
19569;SDS011;9931;51.458;7.256;2023-03-17T08:44:42;19.95;;;1.85;;
19569;SDS011;9931;51.458;7.256;2023-03-17T08:47:08;29.92;;;2.42;;
19569;SDS011;9931;51.458;7.256;2023-03-17T08:49:33;6.90;;;0.93;;
19569;SDS011;9931;51.458;7.256;2023-03-17T08:52:00;72.70;;;5.03;;
19569;SDS011;9931;51.458;7.256;2023-03-17T08:54:26;22.10;;;1.92;;
19569;SDS011;9931;51.458;7.256;2023-03-17T08:56:51;19.00;;;1.70;;
19569;SDS011;9931;51.458;7.256;2023-03-17T08:59:17;34.13;;;2.70;;
19569;SDS011;9931;51.458;7.256;2023-03-17T09:01:42;45.72;;;3.30;;
19569;SDS011;9931;51.458;7.256;2023-03-17T09:04:09;17.17;;;1.60;;
19569;SDS011;9931;51.458;7.256;2023-03-17T09:06:35;50.30;;;3.78;;
19569;SDS011;9931;51.458;7.256;2023-03-17T09:09:00;26.77;;;2.25;;
19569;SDS011;9931;51.458;7.256;2023-03-17T09:11:26;18.10;;;1.67;;
19569;SDS011;9931;51.458;7.256;2023-03-17T09:13:52;15.05;;;1.45;;
19569;SDS011;9931;51.458;7.256;2023-03-17T09:16:17;33.95;;;2.75;;
19569;SDS011;9931;51.458;7.256;2023-03-17T09:18:44;7.28;;;0.85;;
19569;SDS011;9931;51.458;7.256;2023-03-17T09:21:10;51.80;;;3.85;;
19569;SDS011;9931;51.458;7.256;2023-03-17T09:23:36;20.02;;;1.77;;
19569;SDS011;9931;51.458;7.256;2023-03-17T09:26:02;12.90;;;1.38;;
19569;SDS011;9931;51.458;7.256;2023-03-17T09:28:27;16.42;;;1.63;;
19569;SDS011;9931;51.458;7.256;2023-03-17T09:31:03;31.15;;;2.45;;
19569;SDS011;9931;51.458;7.256;2023-03-17T09:33:29;19.25;;;1.75;;
19569;SDS011;9931;51.458;7.256;2023-03-17T09:35:55;25.95;;;2.15;;
19569;SDS011;9931;51.458;7.256;2023-03-17T09:38:23;16.98;;;1.58;;
19569;SDS011;9931;51.458;7.256;2023-03-17T09:40:55;16.02;;;1.70;;
19569;SDS011;9931;51.458;7.256;2023-03-17T09:43:35;19.13;;;1.88;;
19569;SDS011;9931;51.458;7.256;2023-03-17T09:48:52;18.83;;;1.80;;
19569;SDS011;9931;51.458;7.256;2023-03-17T09:51:21;4.68;;;0.85;;
19569;SDS011;9931;51.458;7.256;2023-03-17T09:56:12;26.73;;;2.30;;
19569;SDS011;9931;51.458;7.256;2023-03-17T09:58:38;15.85;;;1.50;;
19569;SDS011;9931;51.458;7.256;2023-03-17T10:01:07;3.20;;;0.75;;
19569;SDS011;9931;51.458;7.256;2023-03-17T10:03:33;22.17;;;1.90;;
19569;SDS011;9931;51.458;7.256;2023-03-17T10:06:09;12.43;;;1.52;;
19569;SDS011;9931;51.458;7.256;2023-03-17T10:08:36;15.80;;;1.63;;
19569;SDS011;9931;51.458;7.256;2023-03-17T10:16:02;66.10;;;5.07;;
19569;SDS011;9931;51.458;7.256;2023-03-17T10:18:32;21.38;;;2.80;;
19569;SDS011;9931;51.458;7.256;2023-03-17T10:21:04;14.60;;;1.65;;
19569;SDS011;9931;51.458;7.256;2023-03-17T10:23:31;95.07;;;6.40;;
19569;SDS011;9931;51.458;7.256;2023-03-17T10:25:59;19.05;;;1.98;;
19569;SDS011;9931;51.458;7.256;2023-03-17T10:28:27;21.15;;;2.13;;
19569;SDS011;9931;51.458;7.256;2023-03-17T10:30:53;20.00;;;2.42;;
19569;SDS011;9931;51.458;7.256;2023-03-17T10:33:19;30.80;;;2.55;;
19569;SDS011;9931;51.458;7.256;2023-03-17T10:35:45;67.05;;;5.53;;
19569;SDS011;9931;51.458;7.256;2023-03-17T10:38:18;23.85;;;2.40;;
19569;SDS011;9931;51.458;7.256;2023-03-17T10:40:55;23.52;;;2.65;;
19569;SDS011;9931;51.458;7.256;2023-03-17T10:43:23;27.63;;;3.03;;
19569;SDS011;9931;51.458;7.256;2023-03-17T10:48:21;31.38;;;4.22;;
19569;SDS011;9931;51.458;7.256;2023-03-17T10:50:47;22.02;;;3.72;;
19569;SDS011;9931;51.458;7.256;2023-03-17T10:53:19;38.03;;;5.00;;
19569;SDS011;9931;51.458;7.256;2023-03-17T10:55:52;47.05;;;6.07;;
19569;SDS011;9931;51.458;7.256;2023-03-17T10:58:24;22.30;;;3.88;;
19569;SDS011;9931;51.458;7.256;2023-03-17T11:00:57;27.27;;;4.22;;
19569;SDS011;9931;51.458;7.256;2023-03-17T11:06:03;22.03;;;4.30;;
19569;SDS011;9931;51.458;7.256;2023-03-17T11:08:32;69.30;;;5.43;;
19569;SDS011;9931;51.458;7.256;2023-03-17T11:11:03;36.78;;;3.88;;
19569;SDS011;9931;51.458;7.256;2023-03-17T11:13:29;16.90;;;4.65;;
19569;SDS011;9931;51.458;7.256;2023-03-17T11:18:40;30.30;;;9.10;;
19569;SDS011;9931;51.458;7.256;2023-03-17T11:21:14;37.05;;;9.90;;
19569;SDS011;9931;51.458;7.256;2023-03-17T11:23:45;47.25;;;10.75;;
19569;SDS011;9931;51.458;7.256;2023-03-17T11:28:41;21.00;;;13.38;;
19569;SDS011;9931;51.458;7.256;2023-03-17T11:38:42;69.43;;;15.55;;
19569;SDS011;9931;51.458;7.256;2023-03-17T11:46:14;19.97;;;18.07;;
19569;SDS011;9931;51.458;7.256;2023-03-17T11:48:46;37.80;;;18.92;;
19569;SDS011;9931;51.458;7.256;2023-03-17T11:51:19;45.22;;;14.07;;
19569;SDS011;9931;51.458;7.256;2023-03-17T11:53:52;31.25;;;13.90;;
19569;SDS011;9931;51.458;7.256;2023-03-17T11:56:20;34.42;;;10.23;;
19569;SDS011;9931;51.458;7.256;2023-03-17T11:58:48;53.72;;;37.30;;
19569;SDS011;9931;51.458;7.256;2023-03-17T12:01:18;28.45;;;23.73;;
19569;SDS011;9931;51.458;7.256;2023-03-17T12:03:50;47.88;;;42.38;;
19569;SDS011;9931;51.458;7.256;2023-03-17T12:06:24;43.03;;;36.08;;
19569;SDS011;9931;51.458;7.256;2023-03-17T12:08:58;28.73;;;21.33;;
19569;SDS011;9931;51.458;7.256;2023-03-17T12:11:27;27.08;;;9.95;;
19569;SDS011;9931;51.458;7.256;2023-03-17T12:14:04;18.02;;;10.43;;
19569;SDS011;9931;51.458;7.256;2023-03-17T12:16:32;27.80;;;8.75;;
19569;SDS011;9931;51.458;7.256;2023-03-17T12:26:35;27.33;;;9.60;;
19569;SDS011;9931;51.458;7.256;2023-03-17T12:29:08;43.03;;;10.80;;
19569;SDS011;9931;51.458;7.256;2023-03-17T12:31:38;50.33;;;10.73;;
19569;SDS011;9931;51.458;7.256;2023-03-17T12:34:08;36.28;;;8.38;;
19569;SDS011;9931;51.458;7.256;2023-03-17T12:36:35;20.63;;;8.88;;
19569;SDS011;9931;51.458;7.256;2023-03-17T12:39:09;37.42;;;12.13;;
19569;SDS011;9931;51.458;7.256;2023-03-17T12:41:40;68.22;;;10.82;;
19569;SDS011;9931;51.458;7.256;2023-03-17T12:49:28;24.20;;;5.60;;
19569;SDS011;9931;51.458;7.256;2023-03-17T12:54:32;26.98;;;6.82;;
19569;SDS011;9931;51.458;7.256;2023-03-17T12:57:03;23.60;;;7.35;;
19569;SDS011;9931;51.458;7.256;2023-03-17T12:59:29;59.90;;;10.30;;
19569;SDS011;9931;51.458;7.256;2023-03-17T13:01:56;24.95;;;7.97;;
19569;SDS011;9931;51.458;7.256;2023-03-17T13:04:28;15.70;;;6.72;;
19569;SDS011;9931;51.458;7.256;2023-03-17T13:11:56;40.70;;;9.52;;
19569;SDS011;9931;51.458;7.256;2023-03-17T13:22:32;28.55;;;8.18;;
19569;SDS011;9931;51.458;7.256;2023-03-17T13:25:10;18.40;;;7.63;;
19569;SDS011;9931;51.458;7.256;2023-03-17T13:33:00;23.65;;;7.13;;
19569;SDS011;9931;51.458;7.256;2023-03-17T13:48:43;21.90;;;5.07;;
19569;SDS011;9931;51.458;7.256;2023-03-17T13:51:24;17.30;;;5.10;;
19569;SDS011;9931;51.458;7.256;2023-03-17T14:01:27;20.63;;;8.00;;
19569;SDS011;9931;51.458;7.256;2023-03-17T14:03:53;20.10;;;6.55;;
19569;SDS011;9931;51.458;7.256;2023-03-17T14:06:20;29.80;;;9.35;;
19569;SDS011;9931;51.458;7.256;2023-03-17T14:08:47;27.27;;;7.13;;
19569;SDS011;9931;51.458;7.256;2023-03-17T14:11:22;12.98;;;6.80;;
19569;SDS011;9931;51.458;7.256;2023-03-17T14:16:34;25.65;;;6.10;;
19569;SDS011;9931;51.458;7.256;2023-03-17T14:19:15;62.70;;;9.88;;
19569;SDS011;9931;51.458;7.256;2023-03-17T14:21:42;59.80;;;8.50;;
19569;SDS011;9931;51.458;7.256;2023-03-17T14:24:17;24.40;;;6.80;;
19569;SDS011;9931;51.458;7.256;2023-03-17T14:26:43;30.98;;;6.75;;
19569;SDS011;9931;51.458;7.256;2023-03-17T14:29:09;33.78;;;7.45;;
19569;SDS011;9931;51.458;7.256;2023-03-17T14:31:37;39.58;;;7.22;;
19569;SDS011;9931;51.458;7.256;2023-03-17T14:34:02;45.83;;;7.57;;
19569;SDS011;9931;51.458;7.256;2023-03-17T14:36:27;10.18;;;4.95;;
19569;SDS011;9931;51.458;7.256;2023-03-17T14:38:56;29.70;;;6.32;;
19569;SDS011;9931;51.458;7.256;2023-03-17T14:43:47;26.77;;;5.60;;
19569;SDS011;9931;51.458;7.256;2023-03-17T14:48:42;16.52;;;4.95;;
19569;SDS011;9931;51.458;7.256;2023-03-17T14:51:09;21.75;;;5.50;;
19569;SDS011;9931;51.458;7.256;2023-03-17T14:53:40;42.65;;;7.15;;
19569;SDS011;9931;51.458;7.256;2023-03-17T14:56:07;27.85;;;6.70;;
19569;SDS011;9931;51.458;7.256;2023-03-17T14:58:36;31.90;;;8.48;;
19569;SDS011;9931;51.458;7.256;2023-03-17T15:01:05;53.47;;;9.63;;
19569;SDS011;9931;51.458;7.256;2023-03-17T15:03:36;58.00;;;7.35;;
19569;SDS011;9931;51.458;7.256;2023-03-17T15:06:04;30.90;;;6.00;;
19569;SDS011;9931;51.458;7.256;2023-03-17T15:10:58;36.63;;;6.20;;
19569;SDS011;9931;51.458;7.256;2023-03-17T15:13:24;23.23;;;5.15;;
19569;SDS011;9931;51.458;7.256;2023-03-17T15:15:50;19.65;;;5.68;;
19569;SDS011;9931;51.458;7.256;2023-03-17T15:18:15;20.25;;;4.72;;
19569;SDS011;9931;51.458;7.256;2023-03-17T15:20:41;34.55;;;6.88;;
19569;SDS011;9931;51.458;7.256;2023-03-17T15:23:14;36.35;;;7.35;;
19569;SDS011;9931;51.458;7.256;2023-03-17T15:25:43;43.08;;;7.18;;
19569;SDS011;9931;51.458;7.256;2023-03-17T15:28:15;15.05;;;4.82;;
19569;SDS011;9931;51.458;7.256;2023-03-17T15:30:41;28.05;;;6.55;;
19569;SDS011;9931;51.458;7.256;2023-03-17T15:33:20;26.20;;;4.95;;
19569;SDS011;9931;51.458;7.256;2023-03-17T15:35:46;19.40;;;6.30;;
19569;SDS011;9931;51.458;7.256;2023-03-17T15:38:11;21.70;;;5.93;;
19569;SDS011;9931;51.458;7.256;2023-03-17T15:40:37;27.38;;;5.70;;
19569;SDS011;9931;51.458;7.256;2023-03-17T15:43:02;29.05;;;6.60;;
19569;SDS011;9931;51.458;7.256;2023-03-17T15:45:27;19.03;;;4.50;;
19569;SDS011;9931;51.458;7.256;2023-03-17T15:47:52;26.90;;;5.78;;
19569;SDS011;9931;51.458;7.256;2023-03-17T15:50:21;7.05;;;4.65;;
19569;SDS011;9931;51.458;7.256;2023-03-17T15:52:48;35.20;;;5.60;;
19569;SDS011;9931;51.458;7.256;2023-03-17T15:55:23;27.40;;;6.43;;
19569;SDS011;9931;51.458;7.256;2023-03-17T15:57:49;26.80;;;5.30;;
19569;SDS011;9931;51.458;7.256;2023-03-17T16:00:18;26.90;;;5.78;;
19569;SDS011;9931;51.458;7.256;2023-03-17T16:02:44;19.27;;;4.32;;
19569;SDS011;9931;51.458;7.256;2023-03-17T16:05:15;64.35;;;8.38;;
19569;SDS011;9931;51.458;7.256;2023-03-17T16:07:40;26.98;;;5.15;;
19569;SDS011;9931;51.458;7.256;2023-03-17T16:10:29;13.52;;;5.95;;
19569;SDS011;9931;51.458;7.256;2023-03-17T16:12:54;21.45;;;5.53;;
19569;SDS011;9931;51.458;7.256;2023-03-17T16:15:21;19.27;;;4.35;;
19569;SDS011;9931;51.458;7.256;2023-03-17T16:17:47;21.67;;;6.25;;
19569;SDS011;9931;51.458;7.256;2023-03-17T16:20:58;24.98;;;5.47;;
19569;SDS011;9931;51.458;7.256;2023-03-17T16:23:00;29.77;;;4.90;;
19569;SDS011;9931;51.458;7.256;2023-03-17T16:25:29;27.02;;;4.95;;
19569;SDS011;9931;51.458;7.256;2023-03-17T16:27:55;22.27;;;5.18;;
19569;SDS011;9931;51.458;7.256;2023-03-17T16:30:22;23.70;;;3.97;;